createdAt,value
2022-12-14T00:01:48.945Z,0.00
2022-12-14T00:04:17.571Z,0.00
2022-12-14T00:06:44.793Z,0.10
2022-12-14T00:09:11.848Z,0.00
2022-12-14T00:11:39.448Z,0.00
2022-12-14T00:14:06.882Z,0.00
2022-12-14T00:16:35.206Z,0.00
2022-12-14T00:19:04.834Z,0.00
2022-12-14T00:21:31.945Z,-0.10
2022-12-14T00:24:00.418Z,-0.10
2022-12-14T00:26:31.158Z,-0.10
2022-12-14T00:29:00.595Z,-0.10
2022-12-14T00:31:28.226Z,0.00
2022-12-14T00:33:55.597Z,-0.10
2022-12-14T00:36:24.244Z,-0.10
2022-12-14T00:38:51.462Z,0.00
2022-12-14T00:41:18.621Z,0.00
2022-12-14T00:43:45.793Z,0.00
2022-12-14T00:46:16.790Z,0.00
2022-12-14T00:48:44.477Z,0.00
2022-12-14T00:51:11.524Z,0.00
2022-12-14T00:53:38.556Z,0.00
2022-12-14T00:56:07.883Z,-0.10
2022-12-14T00:58:35.407Z,-0.10
2022-12-14T01:01:07.931Z,-0.10
2022-12-14T01:03:36.388Z,-0.10
2022-12-14T01:06:04.218Z,-0.10
2022-12-14T01:08:35.884Z,-0.20
2022-12-14T01:11:04.418Z,-0.20
2022-12-14T01:13:31.944Z,-0.20
2022-12-14T01:16:10.823Z,-0.20
2022-12-14T01:18:39.178Z,-0.20
2022-12-14T01:21:15.883Z,-0.20
2022-12-14T01:23:44.159Z,-0.20
2022-12-14T01:26:15.291Z,-0.20
2022-12-14T01:28:42.344Z,-0.20
2022-12-14T01:31:11.895Z,-0.20
2022-12-14T01:33:40.010Z,-0.20
2022-12-14T01:36:09.506Z,-0.20
2022-12-14T01:38:37.174Z,-0.20
2022-12-14T01:41:05.576Z,-0.20
2022-12-14T01:43:54.010Z,-0.20
2022-12-14T01:46:44.179Z,-0.20
2022-12-14T01:49:21.828Z,-0.20
2022-12-14T01:51:56.626Z,-0.20
2022-12-14T01:54:25.517Z,-0.20
2022-12-14T01:56:53.037Z,-0.10
2022-12-14T01:59:28.107Z,-0.10
2022-12-14T02:01:56.914Z,-0.10
2022-12-14T02:04:24.147Z,-0.10
2022-12-14T02:06:59.411Z,0.00
2022-12-14T02:09:33.519Z,0.00
2022-12-14T02:12:25.809Z,0.00
2022-12-14T02:14:54.158Z,0.00
2022-12-14T02:17:22.015Z,0.00
2022-12-14T02:19:49.510Z,0.00
2022-12-14T02:22:37.907Z,0.20
2022-12-14T02:25:32.109Z,0.10
2022-12-14T02:28:20.373Z,0.10
2022-12-14T02:30:57.146Z,0.10
2022-12-14T02:33:47.118Z,0.10
2022-12-14T02:36:41.700Z,0.00
2022-12-14T02:39:21.567Z,0.10
2022-12-14T02:42:15.125Z,0.00
2022-12-14T02:45:13.817Z,0.10
2022-12-14T02:47:44.817Z,0.10
2022-12-14T03:04:32.643Z,0.30
2022-12-14T03:07:04.995Z,0.30
2022-12-14T03:15:00.662Z,0.40
2022-12-14T03:17:33.084Z,0.30
2022-12-14T03:20:09.535Z,0.40
2022-12-14T03:22:47.234Z,0.40
2022-12-14T03:25:21.841Z,0.40
2022-12-14T03:27:59.491Z,0.40
2022-12-14T03:30:58.140Z,0.40
2022-12-14T03:33:21.223Z,0.30
2022-12-14T03:35:58.884Z,0.40
2022-12-14T03:39:00.370Z,0.30
2022-12-14T03:42:02.907Z,0.40
2022-12-14T03:44:57.736Z,0.40
2022-12-14T03:47:49.808Z,0.30
2022-12-14T03:50:50.662Z,0.40
2022-12-14T04:22:09.239Z,0.40
2022-12-14T04:25:05.256Z,0.40
2022-12-14T04:27:53.404Z,0.40
2022-12-14T04:30:20.599Z,0.50
2022-12-14T04:32:59.011Z,0.50
2022-12-14T04:35:36.861Z,0.50
2022-12-14T04:38:17.688Z,0.50
2022-12-14T04:40:56.133Z,0.50
2022-12-14T04:43:29.897Z,0.60
2022-12-14T04:46:09.323Z,0.50
2022-12-14T04:49:07.437Z,0.50
2022-12-14T04:51:54.157Z,0.60
2022-12-14T04:54:21.308Z,0.50
2022-12-14T04:57:00.047Z,0.50
2022-12-14T04:59:27.599Z,0.60
2022-12-14T05:01:55.145Z,0.60
2022-12-14T05:04:54.999Z,0.60
2022-12-14T05:07:34.580Z,0.60
2022-12-14T05:10:11.337Z,0.60
2022-12-14T05:13:03.742Z,0.60
2022-12-14T05:15:40.593Z,0.70
2022-12-14T05:18:09.415Z,0.50
2022-12-14T05:20:36.870Z,0.60
2022-12-14T05:23:03.913Z,0.60
2022-12-14T05:25:31.029Z,0.60
2022-12-14T05:27:58.082Z,0.60
2022-12-14T05:30:25.438Z,0.60
2022-12-14T05:32:53.198Z,0.60
2022-12-14T05:35:21.413Z,0.70
2022-12-14T05:37:49.427Z,0.70
2022-12-14T05:40:17.074Z,0.70
2022-12-14T05:42:46.008Z,0.70
2022-12-14T05:45:15.361Z,0.80
2022-12-14T05:47:42.509Z,0.70
2022-12-14T05:50:09.669Z,0.80
2022-12-14T05:52:36.565Z,0.80
2022-12-14T05:55:05.020Z,0.80
2022-12-14T05:57:32.374Z,0.80
2022-12-14T06:00:00.320Z,0.80
2022-12-14T06:02:27.369Z,0.80
2022-12-14T06:04:54.450Z,1.00
2022-12-14T06:07:27.322Z,0.80
2022-12-14T06:09:54.998Z,0.80
2022-12-14T06:12:22.162Z,0.80
2022-12-14T06:14:49.066Z,0.80
2022-12-14T06:17:16.062Z,0.70
2022-12-14T06:19:43.243Z,0.70
2022-12-14T06:22:17.469Z,0.80
2022-12-14T06:24:44.558Z,0.70
2022-12-14T06:27:11.762Z,0.70
2022-12-14T06:29:38.806Z,0.70
2022-12-14T06:32:06.661Z,0.70
2022-12-14T06:34:39.013Z,0.80
2022-12-14T06:37:07.876Z,0.80
2022-12-14T06:39:35.279Z,0.80
2022-12-14T06:42:02.244Z,0.80
2022-12-14T06:44:29.268Z,0.80
2022-12-14T06:46:56.512Z,0.80
2022-12-14T06:49:23.615Z,0.90
2022-12-14T06:51:55.419Z,0.90
2022-12-14T06:54:23.221Z,0.90
2022-12-14T06:56:50.238Z,0.90
2022-12-14T06:59:17.906Z,0.90
2022-12-14T07:01:49.773Z,0.90
2022-12-14T07:04:18.954Z,1.00
2022-12-14T07:06:46.059Z,1.00
2022-12-14T07:09:15.341Z,1.00
2022-12-14T07:11:42.815Z,1.20
2022-12-14T07:14:16.732Z,1.00
2022-12-14T07:16:47.815Z,1.10
2022-12-14T07:19:17.209Z,1.00
2022-12-14T07:21:44.171Z,1.00
2022-12-14T07:24:11.421Z,1.00
2022-12-14T07:26:38.642Z,1.00
2022-12-14T07:29:06.594Z,1.00
2022-12-14T07:31:33.779Z,1.00
2022-12-14T07:34:00.850Z,1.00
2022-12-14T07:36:29.516Z,1.00
2022-12-14T07:38:57.086Z,0.90
2022-12-14T07:41:30.800Z,0.90
2022-12-14T07:44:00.208Z,0.80
2022-12-14T07:46:29.286Z,0.70
2022-12-14T07:48:57.902Z,0.70
2022-12-14T07:51:30.600Z,0.70
2022-12-14T07:53:58.539Z,0.70
2022-12-14T07:56:28.984Z,0.70
2022-12-14T07:58:57.644Z,0.60
2022-12-14T08:01:30.412Z,0.70
2022-12-14T08:04:01.530Z,0.80
2022-12-14T08:06:30.528Z,0.80
2022-12-14T08:08:58.743Z,0.90
2022-12-14T08:11:27.881Z,0.90
2022-12-14T08:13:59.534Z,0.90
2022-12-14T08:16:29.763Z,1.00
2022-12-14T08:18:58.573Z,1.00
2022-12-14T08:21:26.417Z,1.00
2022-12-14T08:23:54.675Z,0.80
2022-12-14T08:26:22.417Z,0.90
2022-12-14T08:28:49.698Z,0.70
2022-12-14T08:31:20.920Z,0.70
2022-12-14T08:33:48.584Z,0.80
2022-12-14T08:36:21.624Z,0.80
2022-12-14T08:38:59.647Z,0.80
2022-12-14T08:41:28.566Z,0.80
2022-12-14T08:43:58.551Z,0.80
2022-12-14T08:46:27.793Z,1.00
2022-12-14T08:48:56.072Z,1.10
2022-12-14T08:51:24.869Z,1.20
2022-12-14T08:53:53.323Z,1.20
2022-12-14T08:56:23.896Z,1.10
2022-12-14T08:58:52.095Z,1.10
2022-12-14T09:01:25.763Z,1.10
2022-12-14T09:04:02.365Z,1.20
2022-12-14T09:06:29.482Z,1.10
2022-12-14T09:08:57.393Z,1.20
2022-12-14T09:11:26.363Z,1.20
2022-12-14T09:13:55.110Z,1.30
2022-12-14T09:16:26.424Z,1.30
2022-12-14T09:18:54.410Z,1.40
2022-12-14T09:21:22.433Z,1.40
2022-12-14T09:23:55.614Z,1.50
2022-12-14T09:26:28.060Z,1.50
2022-12-14T09:28:58.635Z,1.60
2022-12-14T09:31:27.616Z,1.70
2022-12-14T09:33:55.234Z,1.80
2022-12-14T09:36:27.625Z,1.90
2022-12-14T09:38:56.698Z,2.00
2022-12-14T09:41:45.965Z,2.10
2022-12-14T09:44:27.453Z,2.10
2022-12-14T09:47:10.783Z,2.20
2022-12-14T09:49:48.940Z,2.10
2022-12-14T09:52:55.472Z,2.10
2022-12-14T09:55:55.765Z,2.10
2022-12-14T09:58:28.880Z,2.20
2022-12-14T10:01:13.179Z,2.10
2022-12-14T10:03:51.554Z,2.10
2022-12-14T10:21:03.636Z,2.00
2022-12-14T10:23:31.838Z,2.10
2022-12-14T10:26:04.066Z,2.10
2022-12-14T10:28:34.580Z,2.20
2022-12-14T10:31:06.509Z,2.30
2022-12-14T10:33:33.527Z,2.40
2022-12-14T10:36:26.443Z,2.50
2022-12-14T10:38:56.456Z,2.60
2022-12-14T10:41:49.874Z,2.60
2022-12-14T10:44:37.049Z,2.70
2022-12-14T10:47:16.273Z,2.70
2022-12-14T10:49:54.973Z,2.80
2022-12-14T10:52:30.918Z,2.80
2022-12-14T10:55:06.086Z,2.80
2022-12-14T10:57:33.803Z,2.90
2022-12-14T11:00:08.909Z,3.00
2022-12-14T11:02:43.496Z,2.90
2022-12-14T11:05:52.256Z,2.90
2022-12-14T11:08:48.715Z,2.80
2022-12-14T11:11:25.998Z,2.70
2022-12-14T11:14:08.531Z,2.70
2022-12-14T11:16:41.454Z,2.60
2022-12-14T11:19:22.444Z,2.50
2022-12-14T11:22:04.328Z,2.70
2022-12-14T11:24:31.472Z,2.70
2022-12-14T11:27:02.431Z,2.40
2022-12-14T11:29:37.149Z,2.30
2022-12-14T11:32:06.108Z,2.50
2022-12-14T11:34:41.736Z,2.60
2022-12-14T11:37:26.169Z,2.70
2022-12-14T11:39:56.825Z,2.50
2022-12-14T11:42:25.135Z,2.30
2022-12-14T11:44:53.190Z,2.30
2022-12-14T11:47:29.347Z,2.40
2022-12-14T11:50:00.368Z,2.50
2022-12-14T11:52:43.250Z,2.50
2022-12-14T11:55:26.769Z,2.70
2022-12-14T11:57:57.384Z,2.80
2022-12-14T12:00:45.400Z,2.70
2022-12-14T12:03:16.459Z,2.70
2022-12-14T12:05:44.884Z,2.80
2022-12-14T12:08:19.896Z,3.00
2022-12-14T12:10:50.398Z,3.00
2022-12-14T12:13:18.441Z,3.00
2022-12-14T12:15:55.937Z,3.00
2022-12-14T12:18:48.881Z,3.10
2022-12-14T12:21:27.896Z,3.00
2022-12-14T12:24:03.264Z,3.00
2022-12-14T12:27:00.221Z,3.00
2022-12-14T12:29:33.911Z,3.10
2022-12-14T12:32:19.138Z,3.10
2022-12-14T12:35:10.984Z,3.10
2022-12-14T12:38:02.483Z,3.00
2022-12-14T12:40:43.455Z,3.10
2022-12-14T12:43:30.175Z,3.10
2022-12-14T12:46:00.796Z,3.20
2022-12-14T12:48:52.829Z,3.20
2022-12-14T12:51:25.715Z,3.20
2022-12-14T12:54:01.050Z,3.20
2022-12-14T12:56:36.797Z,3.30
2022-12-14T12:59:06.329Z,3.40
2022-12-14T13:01:39.015Z,3.40
2022-12-14T13:04:15.660Z,3.50
2022-12-14T13:06:58.467Z,3.70
2022-12-14T13:09:26.825Z,4.00
2022-12-14T13:11:55.206Z,4.10
2022-12-14T13:14:32.779Z,4.20
2022-12-14T13:17:01.594Z,4.40
2022-12-14T13:19:54.716Z,4.50
2022-12-14T13:22:29.305Z,4.60
2022-12-14T13:25:00.260Z,4.30
2022-12-14T13:27:30.119Z,4.30
2022-12-14T13:30:47.154Z,4.20
2022-12-14T13:33:45.739Z,4.20
2022-12-14T13:36:35.592Z,4.60
2022-12-14T13:39:12.638Z,5.30
2022-12-14T13:42:01.003Z,5.70
2022-12-14T13:45:12.670Z,5.90
2022-12-14T13:47:43.816Z,5.90
2022-12-14T13:51:01.453Z,6.00
2022-12-14T13:53:36.368Z,6.00
2022-12-14T13:56:04.715Z,5.90
2022-12-14T13:58:42.966Z,5.80
2022-12-14T14:01:14.160Z,5.90
2022-12-14T14:03:47.767Z,5.70
2022-12-14T14:06:17.686Z,5.70
2022-12-14T14:08:53.019Z,5.80
2022-12-14T14:11:38.713Z,5.80
2022-12-14T14:19:58.079Z,5.90
2022-12-14T14:25:38.871Z,6.00
2022-12-14T14:28:11.994Z,6.10
2022-12-14T14:30:56.806Z,6.30
2022-12-14T14:33:46.079Z,6.30
2022-12-14T14:36:27.090Z,6.30
2022-12-14T14:38:56.149Z,6.30
2022-12-14T14:41:27.791Z,6.20
2022-12-14T14:44:00.981Z,5.90
2022-12-14T14:46:54.509Z,5.40
2022-12-14T14:49:35.686Z,4.70
2022-12-14T14:52:39.637Z,4.40
2022-12-14T14:55:51.977Z,3.90
2022-12-14T14:58:29.573Z,3.40
2022-12-14T15:01:21.047Z,3.10
2022-12-14T15:03:57.587Z,2.90
2022-12-14T15:06:32.408Z,2.70
2022-12-14T15:09:05.402Z,2.70
2022-12-14T15:11:57.059Z,2.70
2022-12-14T15:14:52.755Z,2.60
2022-12-14T15:17:25.075Z,2.40
2022-12-14T15:31:01.115Z,2.10
2022-12-14T15:33:34.625Z,1.90
2022-12-14T15:36:06.203Z,1.80
2022-12-14T15:38:35.518Z,1.70
2022-12-14T15:41:17.514Z,1.70
2022-12-14T15:43:47.383Z,1.70
2022-12-14T15:46:23.929Z,1.60
2022-12-14T15:49:08.468Z,1.60
2022-12-14T15:51:41.412Z,1.60
2022-12-14T15:54:20.408Z,1.50
2022-12-14T15:56:54.539Z,1.50
2022-12-14T15:59:26.672Z,1.50
2022-12-14T16:02:06.408Z,1.40
2022-12-14T16:04:37.635Z,1.40
2022-12-14T16:07:15.224Z,1.50
2022-12-14T16:09:51.290Z,1.30
2022-12-14T16:12:28.121Z,1.20
2022-12-14T16:15:01.275Z,1.10
2022-12-14T16:17:36.682Z,1.10
2022-12-14T16:20:11.461Z,1.10
2022-12-14T16:26:14.226Z,1.10
2022-12-14T16:28:41.607Z,1.10
2022-12-14T16:31:19.777Z,1.10
2022-12-14T16:33:50.463Z,1.10
2022-12-14T16:36:20.658Z,1.10
2022-12-14T16:39:20.228Z,0.90
2022-12-14T16:41:59.523Z,0.90
2022-12-14T16:44:29.469Z,0.80
2022-12-14T16:47:05.597Z,0.80
2022-12-14T16:49:40.795Z,0.80
2022-12-14T16:52:10.367Z,0.80
2022-12-14T16:54:38.401Z,0.80
2022-12-14T16:57:20.102Z,0.80
2022-12-14T16:59:57.740Z,0.70
2022-12-14T17:02:33.432Z,0.70
2022-12-14T17:05:04.709Z,0.70
2022-12-14T17:07:34.470Z,0.70
2022-12-14T17:10:01.889Z,0.80
2022-12-14T17:12:29.051Z,0.80
2022-12-14T17:14:57.327Z,0.80
2022-12-14T17:17:34.143Z,0.80
2022-12-14T17:20:09.169Z,0.80
2022-12-14T17:22:39.125Z,0.90
2022-12-14T17:25:06.507Z,0.80
2022-12-14T17:27:33.799Z,0.70
2022-12-14T17:30:00.716Z,0.70
2022-12-14T17:32:33.023Z,0.70
2022-12-14T17:35:00.458Z,0.60
2022-12-14T17:37:34.098Z,0.70
2022-12-14T17:40:04.109Z,0.70
2022-12-14T17:42:31.304Z,0.70
2022-12-14T17:45:00.074Z,0.70
2022-12-14T17:47:27.241Z,0.60
2022-12-14T17:49:55.877Z,0.60
2022-12-14T17:52:31.990Z,0.60
2022-12-14T17:55:27.918Z,0.60
2022-12-14T17:57:56.034Z,0.60
2022-12-14T18:00:48.173Z,0.50
2022-12-14T18:03:16.610Z,0.50
2022-12-14T18:05:49.711Z,0.40
2022-12-14T18:08:17.914Z,0.40
2022-12-14T18:10:50.085Z,0.40
2022-12-14T18:13:17.338Z,0.70
2022-12-14T18:15:50.898Z,0.40
2022-12-14T18:18:20.572Z,0.40
2022-12-14T18:20:53.890Z,0.40
2022-12-14T18:23:22.627Z,0.30
2022-12-14T18:25:56.097Z,0.20
2022-12-14T18:28:27.645Z,0.20
2022-12-14T18:31:01.600Z,0.20
2022-12-14T18:33:29.360Z,0.20
2022-12-14T18:35:58.601Z,0.10
2022-12-14T18:38:26.281Z,0.00
2022-12-14T18:40:55.247Z,0.00
2022-12-14T18:43:25.030Z,0.00
2022-12-14T18:45:53.843Z,-0.10
2022-12-14T18:48:23.833Z,-0.10
2022-12-14T18:50:53.219Z,0.00
2022-12-14T18:53:23.149Z,-0.20
2022-12-14T18:55:53.759Z,-0.20
2022-12-14T18:58:31.817Z,-0.30
2022-12-14T19:01:00.138Z,-0.30
2022-12-14T19:03:36.710Z,-0.40
2022-12-14T19:06:42.423Z,-0.20
2022-12-14T19:09:34.403Z,-0.40
2022-12-14T19:12:01.841Z,-0.40
2022-12-14T19:14:32.021Z,-0.50
2022-12-14T19:16:59.379Z,-0.50
2022-12-14T19:19:31.202Z,-0.60
2022-12-14T19:22:03.030Z,-0.50
2022-12-14T19:24:31.304Z,-0.60
2022-12-14T19:26:58.732Z,-0.60
2022-12-14T19:29:26.000Z,-0.70
2022-12-14T19:31:54.382Z,-0.70
2022-12-14T19:34:22.222Z,-0.70
2022-12-14T19:36:49.148Z,-0.80
2022-12-14T19:39:16.171Z,-0.80
2022-12-14T19:41:43.913Z,-0.80
2022-12-14T19:44:13.374Z,-0.90
2022-12-14T19:46:40.537Z,-0.90
2022-12-14T19:49:13.374Z,-0.90
2022-12-14T19:51:40.837Z,-0.70
2022-12-14T19:54:11.619Z,-0.90
2022-12-14T19:56:39.785Z,-1.00
2022-12-14T19:59:07.281Z,-1.00
2022-12-14T20:01:39.710Z,-1.00
2022-12-14T20:04:13.929Z,-1.00
2022-12-14T20:06:41.271Z,-1.10
2022-12-14T20:09:09.009Z,-1.10
2022-12-14T20:11:36.894Z,-1.20
2022-12-14T20:14:05.527Z,-1.10
2022-12-14T20:16:32.926Z,-1.10
2022-12-14T20:19:00.371Z,-1.20
2022-12-14T20:21:31.002Z,-1.20
2022-12-14T20:24:01.938Z,-1.20
2022-12-14T20:26:30.094Z,-1.30
2022-12-14T20:29:01.271Z,-1.30
2022-12-14T20:31:29.181Z,-1.30
2022-12-14T20:34:01.118Z,-1.30
2022-12-14T20:36:30.988Z,-1.30
2022-12-14T20:39:01.527Z,-1.30
2022-12-14T20:41:30.044Z,-1.20
2022-12-14T20:43:57.441Z,-1.40
2022-12-14T20:46:47.549Z,-1.40
2022-12-14T20:49:18.043Z,-1.40
2022-12-14T20:51:53.434Z,-1.50
2022-12-14T20:54:25.362Z,-1.30
2022-12-14T20:56:57.177Z,-1.30
2022-12-14T20:59:24.885Z,-1.50
2022-12-14T21:01:56.178Z,-1.60
2022-12-14T21:04:25.312Z,-1.60
2022-12-14T21:06:53.124Z,-1.60
2022-12-14T21:09:21.522Z,-1.60
2022-12-14T21:12:09.770Z,-1.60
2022-12-14T21:14:39.065Z,-1.60
2022-12-14T21:17:06.687Z,-1.60
2022-12-14T21:19:36.174Z,-1.70
2022-12-14T21:22:05.838Z,-1.70
2022-12-14T21:25:01.791Z,-1.70
2022-12-14T21:27:28.264Z,-1.80
2022-12-14T21:29:55.321Z,-1.80
2022-12-14T21:32:24.144Z,-1.90
2022-12-14T21:34:51.835Z,-1.90
2022-12-14T21:37:20.478Z,-1.90
2022-12-14T21:39:55.199Z,-1.90
2022-12-14T21:42:24.865Z,-1.90
2022-12-14T21:44:53.954Z,-1.90
2022-12-14T21:47:31.607Z,-1.90
2022-12-14T22:16:41.856Z,-2.40
2022-12-14T22:19:20.600Z,-2.20
2022-12-14T22:21:48.958Z,-2.30
2022-12-14T22:24:16.847Z,-2.40
2022-12-14T22:26:47.902Z,-2.20
2022-12-14T22:29:19.318Z,-2.50
2022-12-14T22:31:46.527Z,-2.50
2022-12-14T22:34:19.291Z,-2.50
2022-12-14T22:36:47.582Z,-2.50
2022-12-14T22:39:14.857Z,-2.50
2022-12-14T22:41:42.209Z,-2.40
2022-12-14T22:44:11.315Z,-2.20
2022-12-14T22:46:39.816Z,-2.40
2022-12-14T22:49:08.791Z,-2.40
2022-12-14T22:51:36.821Z,-2.30
2022-12-14T22:54:04.301Z,-2.40
2022-12-14T22:56:46.356Z,-2.40
2022-12-14T22:59:18.661Z,-2.40
2022-12-14T23:01:50.069Z,-2.50
2022-12-14T23:04:20.359Z,-2.40
2022-12-14T23:06:47.649Z,-2.40
2022-12-14T23:24:26.140Z,-2.40
2022-12-14T23:27:12.150Z,-2.50
2022-12-14T23:32:51.419Z,-2.50
